Carleton, MI (48117)

8:54 PM EST on January 24, 2017 (GMT -0500)
Sylvania Minerals | | Change Station

Elev 587 ft 42.05 °N, 83.27 °W | Updated 32 seconds ago

Overcast
Overcast
38.4 °F
Feels Like 33 °F
N
7.0
Wind Variable Wind from WNW
Gusts 8.0 mph

Today
High -- | Low -- °F
--% Chance of Precip.
Yesterday
High -- | Low -- °F
Precip. -- in
Pressure 29.80 in
Visibility 10.0 miles
Clouds Overcast 2100 ft
Windchill 33 °F
Dew Point 36 °F
Humidity 89%
Rainfall 0.05 in
Snow Depth Not available.
7:53 AM 5:38 PM
Waning Crescent, 9% visible
METAR KTTF 250131Z AUTO 30003KT 10SM OVC021 04/02 A2980 RMK AO2 T00360015
Pressure 29.80 in
Visibility 10.0 miles
Clouds Overcast 2100 ft
Windchill 33 °F
Dew Point 36 °F
Humidity 89%
Rainfall 0.05 in
Snow Depth Not available.
7:53 AM 5:38 PM
Waning Crescent, 9% visible
METAR KTTF 250131Z AUTO 30003KT 10SM OVC021 04/02 A2980 RMK AO2 T00360015

Get Your Daily Forecast Email!

Thanks for signing up!

Be on the lookout for a verification email in your inbox.

You'll start receiving the daily forecast at 8 AM.

×

10-Day Weather Forecast

Almanac

Astronomy

Jan. 24, 2017 Rise Set
Actual Time
Civil Twilight
Nautical Twilight
Astronomical Twilight
Moon
Length of Visible Light
Length of Day
Tomorrow will be .
, % of the Moon is Illuminated

Today's Extremes

State Highs State Lows

Community

WunderPhotos

Upload Photos

1,962,540 photos uploaded!

WunderBlog® & News

Nearby

Air Quality

  Air Quality AQ Index Pollutant
Not available.

Snow Depth

Station Depth Elevation

Earthquake Activity

City Distance Mag. Time & Date
Minimum magnitude displayed is 2.5.

Coastal Water Temperatures

Place Temperature

Stations

Nearby Weather Stations

Station Location Temp. Windchill Dew Point Humidity Wind Precip. Elev Updated Type
                   

Watches & Warnings

There are currently no watches in effect.